Purple Springs, Canada
Current Conditions -  °F | °C
As of 2:00 AM on Friday 24 Oct 2014 (Local Time) from CYQL Reporting Station
Clear Clear  
Wind Chill: 38°   Ceiling: Unl
Heat Index: 46°   Visibility: 9mi
Dew Point: 32°   Wind: 23mph
Humidity: 57%   Direction: 250°WSW
Pressure: 29.75"   Gusts: 32mph
Location:  49.81°N, 111.87°W
Report Text: CYQL 240800Z AUTO 25020G28KT 9SM CLR 08/M00 A2975 RMK PRESRR SLP079 DENSITY ALT 3100FT
Loading
Personal Weather Stations






























Interactive Weather Map
Tropical Storm Tracking
New forecast layout! Learn more

10-Day Weather Forecast

Advertisements
Track Severe Weather on mobile